Skopje-Petrovec, Macedonia

01:56 PM CEST on shtator 20, 2014 (GMT +0200)
Skopje | Change Station
CLOSE
Current Station
Airport
Location: Skopje-Petrovec,
Elevation: 784 ft
Nearby Weather Stations

Elev 784 ft 41.97 °N, 21.65 °E | Updated -193 second ago

Mostly Cloudy
shumica me re
72 °F
Feels Like 72 °F
N
5
Era e paqendrueshme Era from PVP

Sot
High -- | Low -- °F
--% Chance of Precip.
Yesterday
High -- | Low -- °F
Precip. -- ne
6:18 AM 6:34 PM
Waning Crescent, 13% visible
Presioni 30.09 ne
Visioni 6.2 milje
Clouds Few 3000 ft
re te shperndara 10000 ft
shumica me re 20000 ft
Pika E Veses 63 °F
Lageshtira E ajrit 73%
Rainfall 0.00 ne
Snow Depth Not available.
UV 3 out of 12
Pollen Not available.
Air Quality Not available.
Flu Activity Not available.
METAR LWSK 201200Z 29004KT 9999 FEW030 SCT100 BKN200 22/17 Q1019 NOSIG

More Conditions Fewer Conditions

Presioni 30.09 ne
Visioni 6.2 milje
Clouds Few 3000 ft
re te shperndara 10000 ft
shumica me re 20000 ft
Pika E Veses 63 °F
Lageshtira E ajrit 73%
Rainfall 0.00 ne
Snow Depth Not available.
UV 3 out of 12
Pollen Not available.
Air Quality Not available.
Flu Activity Not available.
METAR LWSK 201200Z 29004KT 9999 FEW030 SCT100 BKN200 22/17 Q1019 NOSIG

More Conditions Fewer Conditions

10-Day Weather Forecast

Almanac

Astronomy

Sep. 20, 2014 Rise Set
Actual Time 6:18 AM CEST 6:34 PM CEST
Civil Twilight 5:50 AM CEST 7:02 PM CEST
Nautical Twilight 5:17 AM CEST 7:35 PM CEST
Astronomical Twilight 4:44 AM CEST 8:08 PM CEST
Moon 2:37 AM CEST 4:30 PM CEST
Length Of Visible Light 13h 12m
Length of Day
12h 16m
Tomorrow will be 2m 48s shorter.
Waning Crescent, 13% of the Moon is Illuminated
Sot
Waning Crescent
Sep 24
New
Oct 1
First Quarter
Oct 8
Full
Oct 15
Last Quarter

Yesterday's Extremes

Country Highs Country Lows

Community

WunderPhotos

Upload Photos

1,754,835 photos uploaded!

Nearby

Snow Depth

Not available.

Earthquake Activity

City Distance Mag. Time & Date
No recent earthquake activity has been reported nearby.
Minimum magnitude displayed is 2.5.

Coastal Water Temperatures

Vend Temperatura
No Stations Reporting

Nearby Weather Stations